Harbor Hills, New York
Current Conditions -  °F | °C
As of 8:51 PM on Saturday 20 Dec 2014 (Local Time) from KLGA Reporting Station
Overcast Overcast  
Wind Chill: 27°   Ceiling: 3000
Heat Index: 33°   Visibility: 10mi
Dew Point: 22°   Wind: 7mph
Humidity: 64%   Direction: 20°NNE
Pressure: 30.29"   Gusts: NA
Location:  40.7988°N, 73.7332°W
Report Text: KLGA 210151Z 02006KT 10SM OVC030 01/M06 A3029 RMK AO2 SLP257 T00061056
Loading
Personal Weather Stations






























Interactive Weather Map New forecast layout! Learn more

10-Day Weather Forecast

Advertisements
Track Severe Weather on mobile